ADDS METAR Data INFO
IDs: Format: Raw Decoded Include TAF

Data at: 1156 UTC 23 Jun 2018

KRCV 231135Z AUTO 27015KT 10SM CLR 11/M10 A3015 RMK AO2 T01141105
KRCV 231115Z AUTO 27012KT 10SM CLR 11/M10 A3015 RMK AO2 T01141099
KRCV 231055Z AUTO 24014KT 10SM CLR 12/M10 A3016 RMK AO2 T01171098
KRCV 231035Z AUTO 26017KT 10SM CLR 12/M09 A3015 RMK AO2 T01161095
KRCV 231015Z AUTO 25014KT 10SM CLR 12/M10 A3016 RMK AO2 T01191096
KRCV 230955Z AUTO 24011KT 10SM CLR 12/M10 A3016 RMK AO2 T01161101
KRCV 230935Z AUTO 24014KT 10SM CLR 12/M09 A3016 RMK AO2 T01151092
KRCV 230915Z AUTO 25012G16KT 10SM CLR 11/M09 A3015 RMK AO2 T01101095
KRCV 230855Z AUTO 24013KT 10SM CLR 12/M09 A3016 RMK AO2 T01151093
KRCV 230835Z AUTO 26012KT 10SM CLR 11/M09 A3015 RMK AO2 T01051087
KRCV 230815Z AUTO 25011KT 10SM CLR 11/M10 A3015 RMK AO2 T01121098
KRCV 230755Z AUTO 25010KT 10SM CLR 11/M09 A3015 RMK AO2 T01051091
KRCV 230735Z AUTO 24009KT 10SM CLR 11/M10 A3015 RMK AO2 T01101096
KRCV 230715Z AUTO 26011KT 10SM CLR 11/M10 A3015 RMK AO2 T01131104
KRCV 230655Z AUTO 24010KT 10SM CLR 12/M09 A3016 RMK AO2 T01221090 403060106
KRCV 230635Z AUTO 25007KT 10SM CLR 14/M10 A3016 RMK AO2 T01391097
KRCV 230615Z AUTO 24009KT 10SM CLR 15/M11 A3016 RMK AO2 T01501108
KRCV 230555Z AUTO 31006KT 10SM CLR 19/M14 A3016 RMK AO2 T01871140 10284 20160
KRCV 230535Z AUTO 32011G17KT 10SM CLR 19/M14 A3015 RMK AO2 T01931136
KRCV 230515Z AUTO 29009KT 10SM CLR 17/M12 A3015 RMK AO2 T01721120
KRCV 230455Z AUTO 25009KT 10SM CLR 17/M12 A3015 RMK AO2 T01731116
KRCV 230435Z AUTO 25008KT 10SM CLR 16/M11 A3015 RMK AO2 T01601109
KRCV 230415Z AUTO 25006KT 10SM CLR 20/M12 A3015 RMK AO2 T01961124
KRCV 230355Z AUTO 32009G15KT 10SM CLR 21/M12 A3013 RMK AO2 T02061125
KRCV 230335Z AUTO 33009KT 10SM CLR 21/M12 A3012 RMK AO2 T02101117
KRCV 230315Z AUTO 33011G18KT 10SM CLR 22/M11 A3011 RMK AO2 T02161111
KRCV 230255Z AUTO 32014G21KT 10SM CLR 22/M10 A3009 RMK AO2 T02211102
KRCV 230235Z AUTO 34010KT 10SM CLR 22/M09 A3009 RMK AO2 T02241087
KRCV 230215Z AUTO 32014G22KT 10SM CLR 24/M09 A3009 RMK AO2 T02371088
KRCV 230155Z AUTO 31011G17KT 10SM CLR 25/M09 A3007 RMK AO2 T02491092
KRCV 230135Z AUTO 30016G25KT 10SM CLR 26/M12 A3007 RMK AO2 T02581118
KRCV 230115Z AUTO 30014G22KT 10SM CLR 26/M12 A3006 RMK AO2 T02641122
KRCV 230055Z AUTO 31017G28KT 10SM CLR 27/M14 A3005 RMK AO2 T02691136
KRCV 230035Z AUTO 30014G22KT 10SM CLR 28/M12 A3005 RMK AO2 T02761118
KRCV 230015Z AUTO 30016G28KT 10SM CLR 28/M11 A3005 RMK AO2 T02791108
KRCV 222355Z AUTO 29015G26KT 10SM CLR 28/M10 A3005 RMK AO2 LTG DSNT E T02821101 10306 20268
KRCV 222335Z AUTO 29020G25KT 10SM CLR 29/M10 A3005 RMK AO2 T02921097
KRCV 222315Z AUTO 31016G23KT 10SM CLR 29/M10 A3005 RMK AO2 T02941098
KRCV 222255Z AUTO 27017G27KT 10SM CLR 29/M12 A3005 RMK AO2 T02921116
KRCV 222235Z AUTO 29013G24KT 260V330 10SM CLR 30/M10 A3005 RMK AO2 T02951098
KRCV 222215Z AUTO 25010G22KT 10SM CLR 30/M10 A3006 RMK AO2 T02961101
KRCV 222155Z AUTO 29019G29KT 10SM CLR 30/M10 A3007 RMK AO2 T03021103
KRCV 222135Z AUTO 27018G26KT 10SM CLR 30/M09 A3007 RMK AO2 T02981093
KRCV 222115Z AUTO 25017G26KT 10SM CLR 29/M10 A3008 RMK AO2 T02911097
KRCV 222055Z AUTO 26016G25KT 10SM CLR 28/M09 A3009 RMK AO2 T02841094
KRCV 222035Z AUTO 25016G22KT 10SM CLR 28/M09 A3009 RMK AO2 T02841094
KRCV 222015Z AUTO 23011G20KT 10SM CLR 28/M10 A3009 RMK AO2 LTG DSNT NE T02761096
KRCV 221955Z AUTO 25012G23KT 10SM CLR 27/M07 A3010 RMK AO2 T02691075
KRCV 221935Z AUTO 25020G24KT 10SM CLR 27/M06 A3011 RMK AO2 T02711065
KRCV 221915Z AUTO 24015G21KT 10SM CLR 27/M07 A3012 RMK AO2 T02691071
KRCV 221855Z AUTO 28012G20KT 10SM CLR 28/M09 A3012 RMK AO2 T02831092
KRCV 221835Z AUTO 28015G23KT 10SM CLR 29/M10 A3013 RMK AO2 T02921097
KRCV 221815Z AUTO 28018G31KT 10SM CLR 28/M10 A3013 RMK AO2 T02811099
KRCV 221755Z AUTO 27018G28KT 10SM CLR 29/M10 A3013 RMK AO2 T02891097 10289 20107
KRCV 221735Z AUTO 28020G30KT 10SM CLR 29/M10 A3015 RMK AO2 LTG DSNT NE T02871096
KRCV 221715Z AUTO 25007G31KT 220V280 10SM CLR 28/M08 A3015 RMK AO2 T02791081
KRCV 221655Z AUTO 25017G23KT 10SM CLR 27/M08 A3016 RMK AO2 T02691083
KRCV 221635Z AUTO 25020G27KT 10SM CLR 27/M07 A3017 RMK AO2 T02711074
KRCV 221615Z AUTO 24012G20KT 10SM CLR 26/M07 A3017 RMK AO2 T02631073
KRCV 221555Z AUTO 25016G21KT 10SM CLR 26/M07 A3018 RMK AO2 T02571073
KRCV 221535Z AUTO 17004KT 10SM CLR 23/00 A3019 RMK AO2 T02251001
KRCV 221515Z AUTO 14004KT 10SM CLR 23/M03 A3019 RMK AO2 T02251033
KRCV 221455Z AUTO 24004KT 10SM CLR 21/M04 A3020 RMK AO2 T02131044
KRCV 221435Z AUTO 26008KT 10SM CLR 21/M05 A3021 RMK AO2 T02051050
KRCV 221415Z AUTO 24008G14KT 10SM CLR 19/M05 A3021 RMK AO2 T01881054
KRCV 221355Z AUTO 22005KT 10SM CLR 17/M06 A3021 RMK AO2 T01741057
KRCV 221335Z AUTO 28008KT 10SM CLR 16/M05 A3021 RMK AO2 T01611054
KRCV 221315Z AUTO 28011KT 10SM CLR 15/M06 A3021 RMK AO2 T01511060
KRCV 221255Z AUTO 28013KT 10SM CLR 14/M06 A3020 RMK AO2 T01381061
KRCV 221235Z AUTO 27016KT 10SM CLR 13/M06 A3020 RMK AO2 T01291065
KRCV 221215Z AUTO 27011KT 10SM CLR 12/M06 A3020 RMK AO2 T01191063
KRCV 221155Z AUTO 25013KT 10SM CLR 11/M07 A3020 RMK AO2 T01071069 10183 20106
KRCV 221135Z AUTO 25010KT 10SM CLR 12/M06 A3020 RMK AO2 T01181065
KRCV 221115Z AUTO 26011KT 10SM CLR 11/M06 A3020 RMK AO2 T01131062
KRCV 221055Z AUTO 27009KT 10SM CLR 12/M06 A3020 RMK AO2 T01201061
KRCV 221035Z AUTO 28011KT 10SM CLR 13/M06 A3019 RMK AO2 T01271060
KRCV 221015Z AUTO 28012KT 10SM CLR 13/M06 A3020 RMK AO2 T01311058
KRCV 220955Z AUTO 26011KT 10SM CLR 13/M06 A3020 RMK AO2 T01271058
KRCV 220935Z AUTO 33005KT 10SM CLR 13/M06 A3021 RMK AO2 T01271058
KRCV 220855Z AUTO 27010KT 10SM CLR 15/M05 A3020 RMK AO2 T01501055
KRCV 220835Z AUTO 28008KT 10SM CLR 15/M05 A3021 RMK AO2 T01521055
KRCV 220815Z AUTO 26005KT 10SM CLR 16/M05 A3021 RMK AO2 T01561054
KRCV 220755Z AUTO 26007KT 10SM CLR 16/M05 A3021 RMK AO2 T01581050
KRCV 220735Z AUTO 25007KT 10SM CLR 16/M05 A3021 RMK AO2 T01631050
KRCV 220715Z AUTO 26010KT 10SM CLR 16/M05 A3021 RMK AO2 T01601047
KRCV 220655Z AUTO 27007KT 10SM CLR 16/M05 A3022 RMK AO2 T01621047 402880085
KRCV 220635Z AUTO 26006KT 10SM CLR 16/M04 A3022 RMK AO2 T01581043
KRCV 220615Z AUTO 25007KT 10SM CLR 17/M05 A3022 RMK AO2 T01711047
KRCV 220555Z AUTO 25007KT 10SM CLR 18/M05 A3023 RMK AO2 T01841050 10282 20184
KRCV 220535Z AUTO 26008KT 10SM CLR 20/M06 A3023 RMK AO2 T02021058
KRCV 220515Z AUTO 27011KT 10SM CLR 21/M06 A3023 RMK AO2 T02051056
KRCV 220455Z AUTO 28010G15KT 10SM CLR 21/M05 A3023 RMK AO2 T02081055
KRCV 220435Z AUTO 28011KT 10SM CLR 21/M05 A3023 RMK AO2 T02111047
KRCV 220415Z AUTO 28009KT 10SM CLR 21/M04 A3023 RMK AO2 T02061045
KRCV 220355Z AUTO 27007KT 10SM CLR 21/M04 A3023 RMK AO2 T02091043
KRCV 220335Z AUTO 25007KT 10SM CLR 20/M02 A3022 RMK AO2 T01991017
KRCV 220315Z AUTO 24008KT 10SM CLR 21/M01 A3022 RMK AO2 T02081011
KRCV 220255Z AUTO 22003KT 10SM CLR 23/M01 A3021 RMK AO2 T02251011
KRCV 220235Z AUTO 00000KT 10SM CLR 23/00 A3021 RMK AO2 T02251001
KRCV 220215Z AUTO 00000KT 10SM CLR 24/00 A3021 RMK AO2 T02390004
KRCV 220155Z AUTO 07003KT 10SM CLR 24/00 A3021 RMK AO2 T02410003
KRCV 220135Z AUTO 10003KT 10SM CLR 25/00 A3021 RMK AO2 T02470000
KRCV 220115Z AUTO 13005KT 10SM CLR 26/00 A3021 RMK AO2 T02561001
KRCV 220055Z AUTO 13007KT 10SM CLR 27/M03 A3021 RMK AO2 T02671026
KRCV 220035Z AUTO 12008KT 10SM CLR 28/M02 A3021 RMK AO2 T02801021
KRCV 220015Z AUTO 10008KT 10SM CLR 28/M02 A3021 RMK AO2 T02811023